createdAt,value
2023-02-22T00:00:42.936Z,101470.63
2023-02-22T00:03:15.084Z,101473.50
2023-02-22T00:05:46.934Z,101471.25
2023-02-22T00:08:17.881Z,101467.81
2023-02-22T00:10:46.257Z,101469.56
2023-02-22T00:13:15.563Z,101464.38
2023-02-22T00:15:44.285Z,101464.81
2023-02-22T00:18:15.333Z,101459.16
2023-02-22T00:20:43.249Z,101463.56
2023-02-22T00:23:18.994Z,101453.47
2023-02-22T00:25:47.125Z,101457.97
2023-02-22T00:28:16.977Z,101450.69
2023-02-22T00:30:45.069Z,101458.84
2023-02-22T00:33:15.477Z,101458.81
2023-02-22T00:35:45.739Z,101452.19
2023-02-22T00:38:16.777Z,101456.38
2023-02-22T00:40:45.314Z,101464.63
2023-02-22T00:43:13.614Z,101462.81
2023-02-22T00:45:42.447Z,101451.06
2023-02-22T00:48:11.240Z,101450.91
2023-02-22T00:50:39.359Z,101446.13
2023-02-22T00:53:09.245Z,101450.63
2023-02-22T00:55:39.212Z,101447.97
2023-02-22T00:58:08.554Z,101455.09
2023-02-22T01:00:38.733Z,101450.38
2023-02-22T01:03:07.666Z,101452.31
2023-02-22T01:05:36.471Z,101448.66
2023-02-22T01:08:07.547Z,101462.78
2023-02-22T01:10:35.529Z,101459.34
2023-02-22T01:13:09.160Z,101460.88
2023-02-22T01:15:41.464Z,101468.81
2023-02-22T01:18:10.104Z,101455.53
2023-02-22T01:20:38.096Z,101457.56
2023-02-22T01:23:08.097Z,101453.50
2023-02-22T01:25:36.927Z,101458.09
2023-02-22T01:28:07.962Z,101448.06
2023-02-22T01:30:37.322Z,101448.25
2023-02-22T01:33:08.003Z,101444.91
2023-02-22T01:35:38.516Z,101448.66
2023-02-22T01:38:08.512Z,101443.53
2023-02-22T01:40:41.849Z,101451.19
2023-02-22T01:43:23.662Z,101446.69
2023-02-22T01:45:59.974Z,101442.28
2023-02-22T01:48:33.360Z,101445.97
2023-02-22T01:51:04.006Z,101439.19
2023-02-22T01:53:36.262Z,101435.09
2023-02-22T01:56:05.738Z,101437.00
2023-02-22T01:58:38.014Z,101440.81
2023-02-22T02:01:07.695Z,101438.59
2023-02-22T02:03:38.529Z,101437.53
2023-02-22T02:06:11.910Z,101450.59
2023-02-22T02:08:49.748Z,101441.31
2023-02-22T02:11:20.552Z,101445.81
2023-02-22T02:13:51.713Z,101444.75
2023-02-22T02:16:21.864Z,101440.06
2023-02-22T02:18:49.989Z,101438.91
2023-02-22T02:21:50.578Z,101434.00
2023-02-22T02:25:18.402Z,101434.66
2023-02-22T02:28:13.790Z,101432.56
2023-02-22T02:31:13.495Z,101436.94
2023-02-22T02:33:46.077Z,101432.94
2023-02-22T02:36:20.502Z,101424.91
2023-02-22T02:38:55.913Z,101426.06
2023-02-22T02:41:27.935Z,101427.34
2023-02-22T02:44:00.829Z,101425.19
2023-02-22T02:46:34.883Z,101429.78
2023-02-22T02:49:09.653Z,101429.34
2023-02-22T02:51:41.395Z,101434.25
2023-02-22T02:54:11.199Z,101431.41
2023-02-22T02:56:39.302Z,101427.91
2023-02-22T02:59:25.188Z,101433.41
2023-02-22T03:02:08.200Z,101430.38
2023-02-22T03:04:54.162Z,101428.34
2023-02-22T03:07:34.465Z,101431.44
2023-02-22T03:10:25.458Z,101426.00
2023-02-22T03:13:02.273Z,101422.75
2023-02-22T03:15:41.650Z,101424.03
2023-02-22T03:18:17.791Z,101424.28
2023-02-22T03:20:54.275Z,101422.91
2023-02-22T03:23:29.712Z,101419.84
2023-02-22T03:26:02.439Z,101425.56
2023-02-22T03:28:34.854Z,101423.25
2023-02-22T03:31:07.167Z,101415.13
2023-02-22T03:33:41.298Z,101416.75
2023-02-22T03:36:15.489Z,101418.66
2023-02-22T03:38:45.304Z,101412.47
2023-02-22T03:41:18.624Z,101415.13
2023-02-22T03:43:50.700Z,101419.44
2023-02-22T03:46:20.337Z,101423.72
2023-02-22T03:48:57.283Z,101424.38
2023-02-22T03:51:27.922Z,101417.31
2023-02-22T03:54:00.573Z,101440.25
2023-02-22T03:56:39.478Z,101434.50
2023-02-22T03:59:11.102Z,101437.41
2023-02-22T04:01:39.017Z,101429.78
2023-02-22T04:04:07.907Z,101436.97
2023-02-22T04:06:39.524Z,101431.72
2023-02-22T04:09:08.664Z,101425.50
2023-02-22T04:11:36.509Z,101421.22
2023-02-22T04:14:05.190Z,101427.16
2023-02-22T04:16:33.229Z,101435.19
2023-02-22T04:19:01.632Z,101431.19
2023-02-22T04:21:30.038Z,101420.78
2023-02-22T04:23:59.607Z,101427.34
2023-02-22T04:26:27.714Z,101430.50
2023-02-22T04:28:58.290Z,101432.13
2023-02-22T04:31:29.866Z,101432.47
2023-02-22T04:34:00.102Z,101429.94
2023-02-22T04:36:32.269Z,101433.16
2023-02-22T04:39:02.944Z,101424.09
2023-02-22T04:41:32.248Z,101430.00
2023-02-22T04:44:00.257Z,101428.88
2023-02-22T04:46:29.052Z,101433.44
2023-02-22T04:48:58.000Z,101424.28
2023-02-22T04:51:29.113Z,101427.28
2023-02-22T04:54:07.791Z,101423.66
2023-02-22T04:56:38.128Z,101423.59
2023-02-22T04:59:06.988Z,101421.63
2023-02-22T05:01:36.498Z,101422.16
2023-02-22T05:04:05.438Z,101419.50
2023-02-22T05:06:33.604Z,101415.63
2023-02-22T05:09:01.444Z,101411.91
2023-02-22T05:11:30.665Z,101420.78
2023-02-22T05:13:58.595Z,101417.25
2023-02-22T05:16:26.475Z,101421.63
2023-02-22T05:18:54.563Z,101419.91
2023-02-22T05:21:22.635Z,101417.44
2023-02-22T05:23:50.609Z,101421.03
2023-02-22T05:26:19.037Z,101409.84
2023-02-22T05:28:48.346Z,101405.84
2023-02-22T05:31:17.607Z,101411.44
2023-02-22T05:33:45.618Z,101414.28
2023-02-22T05:36:13.470Z,101400.91
2023-02-22T05:38:43.438Z,101411.13
2023-02-22T05:41:12.697Z,101409.97
2023-02-22T05:43:40.776Z,101410.59
2023-02-22T05:46:10.128Z,101418.50
2023-02-22T05:48:38.126Z,101418.50
2023-02-22T05:51:06.630Z,101421.94
2023-02-22T05:53:34.681Z,101424.31
2023-02-22T05:56:02.591Z,101428.66
2023-02-22T05:58:30.622Z,101419.91
2023-02-22T06:00:58.542Z,101421.19
2023-02-22T06:03:27.801Z,101420.78
2023-02-22T06:05:55.698Z,101426.44
2023-02-22T06:08:23.549Z,101423.31
2023-02-22T06:10:51.456Z,101425.91
2023-02-22T06:13:19.274Z,101429.84
2023-02-22T06:15:47.437Z,101430.34
2023-02-22T06:18:15.332Z,101431.53
2023-02-22T06:20:44.520Z,101432.28
2023-02-22T06:23:12.389Z,101438.84
2023-02-22T06:25:40.339Z,101433.75
2023-02-22T06:28:08.224Z,101433.38
2023-02-22T06:30:36.255Z,101441.59
2023-02-22T06:33:04.226Z,101438.47
2023-02-22T06:35:32.112Z,101438.34
2023-02-22T06:38:01.471Z,101437.66
2023-02-22T06:40:29.801Z,101438.44
2023-02-22T06:42:58.622Z,101442.88
2023-02-22T06:45:26.999Z,101447.53
2023-02-22T06:47:55.561Z,101450.03
2023-02-22T06:50:25.327Z,101456.66
2023-02-22T06:52:56.848Z,101455.34
2023-02-22T06:55:29.246Z,101452.03
2023-02-22T06:57:57.796Z,101451.84
2023-02-22T07:00:27.029Z,101454.44
2023-02-22T07:02:55.393Z,101455.94
2023-02-22T07:05:24.722Z,101460.44
2023-02-22T07:07:54.884Z,101464.31
2023-02-22T07:10:27.165Z,101465.88
2023-02-22T07:12:55.359Z,101465.25
2023-02-22T07:15:25.873Z,101458.75
2023-02-22T07:17:53.927Z,101456.47
2023-02-22T07:20:24.460Z,101459.16
2023-02-22T07:22:52.946Z,101466.34
2023-02-22T07:25:21.350Z,101460.91
2023-02-22T07:27:52.479Z,101459.78
2023-02-22T07:30:25.199Z,101459.16
2023-02-22T07:32:54.773Z,101467.56
2023-02-22T07:35:25.378Z,101464.94
2023-02-22T07:37:55.828Z,101462.41
2023-02-22T07:40:25.503Z,101468.19
2023-02-22T07:42:57.123Z,101466.09
2023-02-22T07:45:26.944Z,101454.25
2023-02-22T07:47:55.034Z,101461.97
2023-02-22T07:50:24.801Z,101461.19
2023-02-22T07:52:54.413Z,101469.63
2023-02-22T07:55:25.040Z,101471.63
2023-02-22T07:57:55.908Z,101462.56
2023-02-22T08:00:27.107Z,101466.19
2023-02-22T08:02:55.133Z,101467.94
2023-02-22T08:05:25.495Z,101463.75
2023-02-22T08:07:53.625Z,101470.28
2023-02-22T08:10:23.366Z,101474.66
2023-02-22T08:12:51.927Z,101468.56
2023-02-22T08:15:25.607Z,101469.56
2023-02-22T08:17:54.473Z,101465.78
2023-02-22T08:20:23.384Z,101465.06
2023-02-22T08:22:52.089Z,101466.78
2023-02-22T08:25:21.964Z,101467.53
2023-02-22T08:27:50.864Z,101469.84
2023-02-22T08:30:24.548Z,101470.28
2023-02-22T08:32:52.812Z,101471.28
2023-02-22T08:35:21.964Z,101471.47
2023-02-22T08:37:51.850Z,101460.97
2023-02-22T08:40:21.798Z,101469.13
2023-02-22T08:42:49.704Z,101464.53
2023-02-22T08:45:18.170Z,101450.28
2023-02-22T08:47:47.591Z,101456.41
2023-02-22T08:50:18.920Z,101453.47
2023-02-22T08:52:46.826Z,101460.56
2023-02-22T08:55:15.021Z,101461.97
2023-02-22T08:57:42.827Z,101456.00
2023-02-22T09:00:12.058Z,101456.69
2023-02-22T09:02:39.936Z,101466.97
2023-02-22T09:05:09.649Z,101458.53
2023-02-22T09:07:37.594Z,101463.56
2023-02-22T09:10:06.025Z,101454.13
2023-02-22T09:12:33.853Z,101464.53
2023-02-22T09:15:01.800Z,101469.66
2023-02-22T09:17:30.384Z,101455.44
2023-02-22T09:19:59.525Z,101452.97
2023-02-22T09:22:29.110Z,101451.94
2023-02-22T09:24:58.543Z,101454.22
2023-02-22T09:27:29.001Z,101454.13
2023-02-22T09:29:57.356Z,101451.84
2023-02-22T09:32:27.705Z,101453.38
2023-02-22T09:34:56.034Z,101453.66
2023-02-22T09:37:23.992Z,101456.50
2023-02-22T09:39:53.401Z,101447.63
2023-02-22T09:42:29.562Z,101439.56
2023-02-22T09:45:12.764Z,101452.63
2023-02-22T09:47:46.632Z,101441.19
2023-02-22T09:50:17.704Z,101430.72
2023-02-22T09:52:55.324Z,101435.69
2023-02-22T09:55:34.209Z,101440.22
2023-02-22T09:58:05.024Z,101435.06
2023-02-22T10:00:37.896Z,101424.41
2023-02-22T10:03:21.856Z,101423.69
2023-02-22T10:05:57.686Z,101422.25
2023-02-22T10:08:31.163Z,101419.16
2023-02-22T10:11:11.711Z,101430.88
2023-02-22T10:13:52.697Z,101423.34
2023-02-22T10:16:28.305Z,101422.72
2023-02-22T10:19:22.552Z,101416.47
2023-02-22T10:22:20.464Z,101415.13
2023-02-22T10:24:58.289Z,101411.47
2023-02-22T10:27:34.198Z,101413.78
2023-02-22T10:30:23.350Z,101417.34
2023-02-22T10:32:58.981Z,101411.81
2023-02-22T10:35:30.212Z,101419.31
2023-02-22T10:38:02.005Z,101416.00
2023-02-22T10:40:35.946Z,101414.66
2023-02-22T10:43:07.653Z,101415.22
2023-02-22T10:45:37.186Z,101404.16
2023-02-22T10:48:11.487Z,101400.31
2023-02-22T10:50:42.024Z,101399.63
2023-02-22T10:53:11.008Z,101398.72
2023-02-22T10:56:09.760Z,101407.09
2023-02-22T10:58:44.296Z,101406.69
2023-02-22T11:01:37.499Z,101401.03
2023-02-22T11:04:12.418Z,101405.88
2023-02-22T11:06:42.495Z,101412.50
2023-02-22T11:09:14.488Z,101404.44
2023-02-22T11:11:44.478Z,101396.84
2023-02-22T11:14:16.249Z,101393.06
2023-02-22T11:16:50.784Z,101395.47
2023-02-22T11:19:23.227Z,101404.28
2023-02-22T11:21:53.224Z,101396.28
2023-02-22T11:24:24.670Z,101400.22
2023-02-22T11:26:56.278Z,101392.03
2023-02-22T11:29:28.804Z,101397.50
2023-02-22T11:31:57.045Z,101393.28
2023-02-22T11:34:34.783Z,101396.06
2023-02-22T11:37:31.197Z,101381.06
2023-02-22T11:40:08.717Z,101382.94
2023-02-22T11:42:36.589Z,101387.94
2023-02-22T11:45:20.768Z,101377.84
2023-02-22T11:48:00.924Z,101376.22
2023-02-22T11:50:31.462Z,101370.22
2023-02-22T11:53:13.620Z,101364.94
2023-02-22T11:55:53.078Z,101361.19
2023-02-22T11:58:37.795Z,101357.41
2023-02-22T12:01:18.326Z,101355.88
2023-02-22T12:04:28.909Z,101353.22
2023-02-22T12:07:15.768Z,101342.88
2023-02-22T12:09:52.936Z,101347.63
2023-02-22T12:12:29.099Z,101353.38
2023-02-22T12:15:04.091Z,101349.91
2023-02-22T12:17:59.397Z,101341.22
2023-02-22T12:20:33.028Z,101334.47
2023-02-22T12:23:07.919Z,101332.78
2023-02-22T12:25:39.484Z,101343.81
2023-02-22T12:28:24.643Z,101337.84
2023-02-22T12:31:00.868Z,101342.00
2023-02-22T12:33:38.911Z,101342.47
2023-02-22T12:36:07.730Z,101336.56
2023-02-22T12:38:40.594Z,101340.81
2023-02-22T12:41:14.874Z,101336.56
2023-02-22T12:43:48.971Z,101336.25
2023-02-22T12:46:22.462Z,101335.84
2023-02-22T12:49:00.450Z,101343.31
2023-02-22T12:51:37.226Z,101335.81
2023-02-22T12:54:14.504Z,101334.19
2023-02-22T12:56:49.105Z,101335.03
2023-02-22T12:59:21.916Z,101336.50
2023-02-22T13:01:55.075Z,101338.06
2023-02-22T13:04:24.355Z,101336.19
2023-02-22T13:07:06.283Z,101340.47
2023-02-22T13:09:59.504Z,101336.19
2023-02-22T13:12:37.118Z,101335.16
2023-02-22T13:15:17.059Z,101327.72
2023-02-22T13:17:54.254Z,101328.16
2023-02-22T13:20:29.141Z,101325.50
2023-02-22T13:23:03.977Z,101309.13
2023-02-22T13:25:39.281Z,101318.69
2023-02-22T13:28:21.651Z,101313.22
2023-02-22T13:31:03.051Z,101314.03
2023-02-22T13:33:42.887Z,101316.41
2023-02-22T13:36:23.839Z,101309.13
2023-02-22T13:39:22.208Z,101310.47
2023-02-22T13:42:06.045Z,101309.97
2023-02-22T13:45:16.560Z,101305.66
2023-02-22T13:48:12.767Z,101312.06
2023-02-22T13:51:11.001Z,101302.13
2023-02-22T13:53:49.783Z,101293.81
2023-02-22T13:56:21.074Z,101304.63
2023-02-22T13:58:52.955Z,101303.19
2023-02-22T14:01:42.058Z,101302.28
2023-02-22T14:04:45.130Z,101296.94
2023-02-22T14:07:48.757Z,101292.16
2023-02-22T14:10:40.612Z,101303.84
2023-02-22T14:13:09.026Z,101299.94
2023-02-22T14:15:36.944Z,101301.03
2023-02-22T14:18:07.419Z,101296.13
2023-02-22T14:20:36.916Z,101291.09
2023-02-22T14:23:34.395Z,101296.88
2023-02-22T14:26:15.239Z,101297.91
2023-02-22T14:28:51.929Z,101290.84
2023-02-22T14:31:35.333Z,101285.81
2023-02-22T14:34:10.593Z,101299.53
2023-02-22T14:36:45.748Z,101298.94
2023-02-22T14:39:20.612Z,101291.91
2023-02-22T14:41:55.809Z,101293.25
2023-02-22T14:44:28.927Z,101280.25
2023-02-22T14:47:02.300Z,101283.97
2023-02-22T14:49:33.036Z,101286.25
2023-02-22T14:52:06.089Z,101276.81
2023-02-22T14:54:42.219Z,101274.38
2023-02-22T14:57:21.627Z,101274.75
2023-02-22T15:00:00.842Z,101274.53
2023-02-22T15:02:28.749Z,101264.41
2023-02-22T15:04:57.254Z,101273.44
2023-02-22T15:07:29.653Z,101267.19
2023-02-22T15:10:20.636Z,101266.25
2023-02-22T15:13:10.942Z,101273.25
2023-02-22T15:15:43.763Z,101255.78
2023-02-22T15:18:25.638Z,101262.91
2023-02-22T15:20:57.646Z,101262.00
2023-02-22T15:23:33.263Z,101257.19
2023-02-22T15:26:01.349Z,101257.50
2023-02-22T15:28:32.164Z,101252.59
2023-02-22T15:31:24.800Z,101265.06
2023-02-22T15:33:55.007Z,101258.88
2023-02-22T15:36:27.828Z,101252.44
2023-02-22T15:38:56.891Z,101263.03
2023-02-22T15:41:28.822Z,101270.84
2023-02-22T15:44:22.727Z,101267.69
2023-02-22T15:46:54.354Z,101256.72
2023-02-22T15:49:24.490Z,101259.00
2023-02-22T15:52:08.339Z,101249.78
2023-02-22T15:54:42.796Z,101261.84
2023-02-22T15:57:11.290Z,101259.41
2023-02-22T15:59:48.054Z,101263.16
2023-02-22T16:02:41.638Z,101259.38
2023-02-22T16:05:12.689Z,101261.84
2023-02-22T16:07:45.305Z,101261.41
2023-02-22T16:10:27.239Z,101260.50
2023-02-22T16:13:30.998Z,101251.13
2023-02-22T16:16:03.393Z,101249.84
2023-02-22T16:18:34.465Z,101253.41
2023-02-22T16:21:05.526Z,101251.44
2023-02-22T16:23:45.142Z,101252.75
2023-02-22T16:26:24.121Z,101244.13
2023-02-22T16:28:56.088Z,101253.91
2023-02-22T16:31:27.399Z,101247.69
2023-02-22T16:33:56.060Z,101248.38
2023-02-22T16:36:37.007Z,101251.44
2023-02-22T16:39:07.151Z,101255.94
2023-02-22T16:41:35.290Z,101251.34
2023-02-22T16:44:03.452Z,101261.19
2023-02-22T16:46:32.719Z,101252.50
2023-02-22T16:49:03.339Z,101258.09
2023-02-22T16:51:45.086Z,101257.47
2023-02-22T16:54:15.195Z,101256.31
2023-02-22T16:56:43.114Z,101256.91
2023-02-22T16:59:14.658Z,101246.88
2023-02-22T17:01:45.027Z,101259.47
2023-02-22T17:04:17.743Z,101253.16
2023-02-22T17:06:45.953Z,101264.63
2023-02-22T17:09:15.223Z,101260.13
2023-02-22T17:11:44.499Z,101247.91
2023-02-22T17:14:17.608Z,101256.69
2023-02-22T17:16:47.593Z,101249.03
2023-02-22T17:19:17.601Z,101255.63
2023-02-22T17:21:45.726Z,101252.75
2023-02-22T17:24:14.919Z,101254.56
2023-02-22T17:26:43.020Z,101250.50
2023-02-22T17:29:11.138Z,101261.94
2023-02-22T17:31:39.249Z,101251.03
2023-02-22T17:34:08.765Z,101249.31
2023-02-22T17:36:37.400Z,101249.63
2023-02-22T17:39:06.559Z,101254.34
2023-02-22T17:41:34.449Z,101256.38
2023-02-22T17:44:02.484Z,101249.00
2023-02-22T17:46:30.622Z,101250.72
2023-02-22T17:48:58.726Z,101250.19
2023-02-22T17:51:27.992Z,101245.59
2023-02-22T17:53:55.990Z,101250.69
2023-02-22T17:56:23.857Z,101242.47
2023-02-22T17:58:54.984Z,101252.84
2023-02-22T18:01:27.024Z,101251.34
2023-02-22T18:03:56.134Z,101254.56
2023-02-22T18:06:27.282Z,101252.41
2023-02-22T18:08:58.185Z,101241.72
2023-02-22T18:11:27.428Z,101244.72
2023-02-22T18:13:56.655Z,101244.91
2023-02-22T18:16:26.596Z,101245.00
2023-02-22T18:18:55.511Z,101243.00
2023-02-22T18:21:24.024Z,101243.41
2023-02-22T18:23:51.912Z,101240.97
2023-02-22T18:26:23.274Z,101237.84
2023-02-22T18:28:53.555Z,101241.50
2023-02-22T18:31:23.320Z,101239.78
2023-02-22T18:33:52.942Z,101247.78
2023-02-22T18:36:23.138Z,101245.69
2023-02-22T18:38:52.523Z,101240.22
2023-02-22T18:41:25.663Z,101243.84
2023-02-22T18:43:55.414Z,101232.84
2023-02-22T18:46:25.146Z,101240.88
2023-02-22T18:48:54.570Z,101238.47
2023-02-22T18:51:23.589Z,101232.72
2023-02-22T18:53:56.757Z,101222.06
2023-02-22T18:56:29.805Z,101231.63
2023-02-22T18:59:00.124Z,101228.88
2023-02-22T19:01:28.969Z,101231.44
2023-02-22T19:03:57.135Z,101227.50
2023-02-22T19:06:25.013Z,101220.09
2023-02-22T19:08:53.502Z,101222.47
2023-02-22T19:11:23.616Z,101220.75
2023-02-22T19:13:54.873Z,101223.63
2023-02-22T19:16:24.647Z,101228.91
2023-02-22T19:18:57.263Z,101229.28
2023-02-22T19:21:26.895Z,101228.84
2023-02-22T19:24:01.680Z,101242.81
2023-02-22T19:26:30.204Z,101246.66
2023-02-22T19:29:04.689Z,101232.81
2023-02-22T19:31:34.551Z,101235.09
2023-02-22T19:34:04.352Z,101236.53
2023-02-22T19:36:32.824Z,101234.56
2023-02-22T19:39:01.703Z,101231.63
2023-02-22T19:41:29.940Z,101244.84
2023-02-22T19:43:59.642Z,101245.69
2023-02-22T19:46:28.205Z,101245.16
2023-02-22T19:48:56.735Z,101250.63
2023-02-22T19:51:27.793Z,101241.66
2023-02-22T19:53:58.808Z,101241.78
2023-02-22T19:56:27.644Z,101236.53
2023-02-22T19:58:57.750Z,101236.53
2023-02-22T20:01:29.914Z,101241.16
2023-02-22T20:03:59.938Z,101242.16
2023-02-22T20:06:29.572Z,101235.94
2023-02-22T20:08:58.536Z,101238.00
2023-02-22T20:11:26.449Z,101239.59
2023-02-22T20:13:55.816Z,101240.81
2023-02-22T20:16:24.086Z,101237.84
2023-02-22T20:18:54.457Z,101237.91
2023-02-22T20:21:26.919Z,101242.81
2023-02-22T20:23:57.109Z,101241.13
2023-02-22T20:26:27.503Z,101238.03
2023-02-22T20:28:56.338Z,101241.66
2023-02-22T20:31:24.580Z,101236.91
2023-02-22T20:33:56.929Z,101238.22
2023-02-22T20:36:25.558Z,101235.66
2023-02-22T20:38:53.875Z,101248.53
2023-02-22T20:41:25.397Z,101235.78
2023-02-22T20:43:55.140Z,101241.56
2023-02-22T20:46:24.773Z,101238.22
2023-02-22T20:48:57.175Z,101241.19
2023-02-22T20:51:25.581Z,101237.16
2023-02-22T20:53:54.212Z,101224.38
2023-02-22T20:56:23.610Z,101224.97
2023-02-22T20:58:52.287Z,101230.53
2023-02-22T21:01:22.476Z,101228.81
2023-02-22T21:03:51.273Z,101228.81
2023-02-22T21:06:22.980Z,101234.50
2023-02-22T21:08:53.630Z,101227.28
2023-02-22T21:11:22.977Z,101235.47
2023-02-22T21:13:51.393Z,101226.22
2023-02-22T21:16:21.034Z,101237.47
2023-02-22T21:18:51.616Z,101238.22
2023-02-22T21:21:21.837Z,101229.47
2023-02-22T21:23:51.625Z,101231.47
2023-02-22T21:26:23.463Z,101224.34
2023-02-22T21:28:52.010Z,101214.72
2023-02-22T21:31:22.240Z,101228.88
2023-02-22T21:33:52.657Z,101219.84
2023-02-22T21:36:25.285Z,101225.34
2023-02-22T21:38:55.695Z,101215.97
2023-02-22T21:41:27.503Z,101209.94
2023-02-22T21:43:56.423Z,101216.94
2023-02-22T21:46:24.820Z,101219.69
2023-02-22T21:48:52.744Z,101218.31
2023-02-22T21:51:25.287Z,101222.47
2023-02-22T21:53:55.277Z,101214.41
2023-02-22T21:56:27.516Z,101213.16
2023-02-22T21:58:59.117Z,101213.72
2023-02-22T22:01:28.487Z,101207.22
2023-02-22T22:03:59.641Z,101201.69
2023-02-22T22:06:30.452Z,101202.75
2023-02-22T22:08:59.814Z,101201.19
2023-02-22T22:11:30.519Z,101208.78
2023-02-22T22:13:59.715Z,101193.69
2023-02-22T22:16:29.834Z,101195.44
2023-02-22T22:18:58.489Z,101191.09
2023-02-22T22:21:27.882Z,101188.78
2023-02-22T22:23:57.406Z,101195.69
2023-02-22T22:26:27.318Z,101184.78
2023-02-22T22:28:58.930Z,101190.19
2023-02-22T22:31:29.023Z,101196.88
2023-02-22T22:33:58.139Z,101194.31
2023-02-22T22:36:28.701Z,101195.84
2023-02-22T22:38:58.344Z,101186.44
2023-02-22T22:41:28.118Z,101197.66
2023-02-22T22:43:56.755Z,101192.81
2023-02-22T22:46:24.931Z,101189.56
2023-02-22T22:48:52.816Z,101187.22
2023-02-22T22:51:21.987Z,101180.69
2023-02-22T22:53:52.863Z,101184.13
2023-02-22T22:56:26.391Z,101188.03
2023-02-22T22:58:56.418Z,101186.81
2023-02-22T23:01:27.315Z,101186.16
2023-02-22T23:03:57.313Z,101185.56
2023-02-22T23:06:30.803Z,101178.94
2023-02-22T23:09:10.242Z,101173.56
2023-02-22T23:11:44.522Z,101174.09
2023-02-22T23:14:15.048Z,101177.56
2023-02-22T23:16:45.173Z,101181.66
2023-02-22T23:19:15.551Z,101176.50
2023-02-22T23:21:44.564Z,101176.72
2023-02-22T23:24:17.294Z,101174.16
2023-02-22T23:26:48.769Z,101175.88
2023-02-22T23:29:17.906Z,101170.69
2023-02-22T23:31:48.333Z,101173.09
2023-02-22T23:34:17.980Z,101179.63
2023-02-22T23:36:46.871Z,101173.94
2023-02-22T23:39:20.510Z,101173.38
2023-02-22T23:41:51.412Z,101171.25
2023-02-22T23:44:19.874Z,101170.72
2023-02-22T23:46:49.403Z,101175.59
2023-02-22T23:49:20.425Z,101171.25
2023-02-22T23:51:49.456Z,101176.19
2023-02-22T23:54:21.437Z,101173.81
2023-02-22T23:56:56.643Z,101175.84
2023-02-22T23:59:26.581Z,101180.19
